Time;durP1;ratioP1;P1;durP2;ratioP2;P2;SDS_P1;SDS_P2;PMS_P1;PMS_P2;Temp;Humidity;BMP_temperature;BMP_pressure;BME280_temperature;BME280_humidity;BME280_pressure;Samples;Min_cycle;Max_cycle;Signal;HPM_P1;HPM_P2
2022/09/11 00:00:51;;;;;;;39.58;26.23;;;;;;;12.33;100.00;101582.75;5085396;28;20028;-65
2022/09/11 00:03:19;;;;;;;43.28;28.02;;;;;;;12.30;100.00;101582.69;5082601;28;20033;-65
2022/09/11 00:05:45;;;;;;;43.78;27.73;;;;;;;12.31;100.00;101583.59;5085452;28;20031;-66
2022/09/11 00:08:13;;;;;;;40.65;26.52;;;;;;;12.26;100.00;101580.91;5083276;28;20036;-65
2022/09/11 00:10:40;;;;;;;42.83;27.95;;;;;;;12.24;100.00;101587.06;5084383;28;20020;-66
2022/09/11 00:13:07;;;;;;;45.03;29.25;;;;;;;12.23;100.00;101586.16;5083518;28;20039;-65
2022/09/11 00:15:40;;;;;;;45.45;29.05;;;;;;;12.17;100.00;101581.72;5083144;28;20074;-65
2022/09/11 00:18:07;;;;;;;48.08;30.25;;;;;;;12.18;100.00;101588.78;5084056;28;20040;-67
2022/09/11 00:20:33;;;;;;;43.85;28.63;;;;;;;12.15;100.00;101586.09;5083167;28;20025;-65
2022/09/11 00:23:03;;;;;;;47.03;30.15;;;;;;;12.20;100.00;101587.03;5084851;28;20378;-65
2022/09/11 00:25:35;;;;;;;47.08;30.75;;;;;;;12.25;100.00;101595.03;5082533;28;20539;-65
2022/09/11 00:28:01;;;;;;;46.40;29.90;;;;;;;12.19;100.00;101594.97;5084280;28;20081;-66
2022/09/11 00:30:28;;;;;;;48.80;31.48;;;;;;;12.17;100.00;101586.09;5081999;28;20211;-66
2022/09/11 00:32:53;;;;;;;48.42;31.02;;;;;;;12.14;100.00;101597.56;5085041;28;20466;-66
2022/09/11 00:35:19;;;;;;;53.38;31.95;;;;;;;12.05;100.00;101597.47;5081959;28;20119;-66
2022/09/11 00:37:44;;;;;;;52.05;32.47;;;;;;;12.04;100.00;101595.69;5084422;28;20107;-65
2022/09/11 00:40:09;;;;;;;47.65;29.90;;;;;;;11.96;100.00;101592.97;5082582;28;20501;-66
2022/09/11 00:42:35;;;;;;;52.03;31.70;;;;;;;11.97;100.00;101593.84;5083297;28;20074;-67
2022/09/11 00:45:06;;;;;;;53.10;31.63;;;;;;;11.96;100.00;101600.03;5083770;28;20024;-69
2022/09/11 00:47:32;;;;;;;57.53;33.78;;;;;;;11.98;100.00;101600.94;5082437;28;20024;-69
2022/09/11 00:50:08;;;;;;;54.63;32.78;;;;;;;11.98;100.00;101600.94;5084394;28;20031;-70
2022/09/11 00:52:39;;;;;;;57.25;34.65;;;;;;;11.93;100.00;101607.94;5082904;28;20427;-73
2022/09/11 00:55:13;;;;;;;54.83;34.28;;;;;;;11.95;100.00;101611.50;5081576;28;20371;-73
2022/09/11 00:57:45;;;;;;;55.35;34.35;;;;;;;12.01;100.00;101611.56;5083139;28;20032;-67
2022/09/11 01:00:12;;;;;;;60.22;35.78;;;;;;;11.95;100.00;101615.03;5082349;28;20107;-70
2022/09/11 01:02:41;;;;;;;55.85;35.10;;;;;;;11.90;100.00;101610.50;5083097;28;20063;-68
2022/09/11 01:05:08;;;;;;;58.50;34.28;;;;;;;11.86;100.00;101620.22;5082839;28;20032;-68
2022/09/11 01:07:35;;;;;;;59.60;35.90;;;;;;;11.89;100.00;101616.72;5082590;28;20029;-72
2022/09/11 01:10:02;;;;;;;60.13;36.58;;;;;;;11.90;100.00;101624.66;5083865;28;20023;-68
2022/09/11 01:12:57;;;;;;;60.58;35.95;;;;;;;11.88;100.00;101622.88;5081822;28;20028;-67
2022/09/11 01:15:43;;;;;;;65.28;36.17;;;;;;;11.82;100.00;101621.03;5081234;28;20067;-69
2022/09/11 01:18:30;;;;;;;64.65;35.72;;;;;;;11.77;100.00;101628.94;5082835;28;20052;-68
2022/09/11 01:21:20;;;;;;;65.32;35.85;;;;;;;11.75;100.00;101627.13;5081456;28;20020;-68
2022/09/11 01:23:59;;;;;;;63.78;35.22;;;;;;;11.69;100.00;101626.19;5081289;28;20037;-66
2022/09/11 01:26:33;;;;;;;63.53;36.45;;;;;;;11.69;100.00;101620.00;5080825;28;20482;-66
2022/09/11 01:29:49;;;;;;;68.90;37.50;;;;;;;11.71;100.00;101623.56;5083362;28;20415;-66
2022/09/11 01:32:26;;;;;;;65.00;37.33;;;;;;;11.72;100.00;101620.03;5030051;28;20325;-66
2022/09/11 01:35:11;;;;;;;60.20;35.45;;;;;;;11.72;100.00;101625.31;5006317;28;20030;-66
2022/09/11 01:37:47;;;;;;;61.10;35.72;;;;;;;11.64;100.00;101629.66;5030547;28;20538;-66
2022/09/11 01:40:37;;;;;;;69.15;38.00;;;;;;;11.58;100.00;101626.94;5030307;28;20539;-66
2022/09/11 01:43:09;;;;;;;63.35;36.60;;;;;;;11.57;100.00;101628.69;5028257;28;20049;-66
2022/09/11 01:45:37;;;;;;;64.57;36.53;;;;;;;11.59;100.00;101623.41;5030192;28;20030;-66
2022/09/11 01:48:04;;;;;;;57.83;35.42;;;;;;;11.53;100.00;101632.16;5030050;28;20037;-66
2022/09/11 01:50:32;;;;;;;60.08;36.15;;;;;;;11.50;100.00;101640.06;5030414;28;20575;-65
2022/09/11 01:53:02;;;;;;;59.42;35.63;;;;;;;11.49;100.00;101638.31;5030214;28;20085;-66
2022/09/11 01:55:37;;;;;;;78.97;41.05;;;;;;;11.52;100.00;101628.63;5030221;28;20033;-65
2022/09/11 01:58:14;;;;;;;60.58;36.10;;;;;;;11.45;100.00;101637.34;5030139;28;20033;-66
2022/09/11 02:00:44;;;;;;;71.03;38.47;;;;;;;11.49;100.00;101635.66;5030288;28;20060;-66
2022/09/11 02:03:17;;;;;;;60.58;36.03;;;;;;;11.45;100.00;101628.53;5030005;28;20534;-65
2022/09/11 02:05:50;;;;;;;116.85;35.83;;;;;;;11.36;100.00;101633.69;5030082;28;20447;-66
2022/09/11 02:08:26;;;;;;;77.82;36.70;;;;;;;11.42;100.00;101636.44;5047587;28;20043;-66
2022/09/11 02:10:57;;;;;;;59.05;35.55;;;;;;;11.43;100.00;101636.47;5083228;28;20055;-67
2022/09/11 02:13:29;;;;;;;56.47;33.75;;;;;;;11.42;100.00;101636.44;5084666;28;20028;-69
2022/09/11 02:16:03;;;;;;;57.72;34.33;;;;;;;11.41;100.00;101639.94;5083501;28;20052;-67
2022/09/11 02:18:40;;;;;;;111.15;41.20;;;;;;;11.40;100.00;101635.50;5087979;28;20042;-67
2022/09/11 02:21:05;;;;;;;73.30;37.40;;;;;;;11.33;100.00;101642.50;5086043;28;20039;-71
2022/09/11 02:23:31;;;;;;;194.55;41.95;;;;;;;11.32;100.00;101646.00;5085211;28;20405;-72
2022/09/11 02:25:56;;;;;;;61.70;35.08;;;;;;;11.32;100.00;101643.38;5087226;28;20024;-68
2022/09/11 02:28:21;;;;;;;88.10;34.63;;;;;;;11.26;100.00;101638.88;5083965;28;20025;-69
2022/09/11 02:30:47;;;;;;;87.18;38.00;;;;;;;11.28;100.00;101638.88;5087236;28;20044;-70
2022/09/11 02:33:31;;;;;;;150.73;40.63;;;;;;;11.32;100.00;101648.66;5085021;28;20028;-71
2022/09/11 02:36:23;;;;;;;333.60;41.67;;;;;;;11.25;100.00;101645.03;5084322;28;20029;-73
2022/09/11 02:38:58;;;;;;;67.90;37.22;;;;;;;11.28;100.00;101649.47;5083600;28;20138;-73
2022/09/11 02:41:31;;;;;;;131.13;41.00;;;;;;;11.29;100.00;101645.97;5082543;28;20033;-70
2022/09/11 02:44:21;;;;;;;73.78;37.40;;;;;;;11.25;100.00;101646.78;5083899;28;20016;-74
2022/09/11 02:47:04;;;;;;;83.43;38.20;;;;;;;11.22;100.00;101647.63;5084162;28;20024;-74
2022/09/11 02:49:50;;;;;;;272.65;42.80;;;;;;;11.16;100.00;101648.41;5084511;28;20032;-73
2022/09/11 02:52:16;;;;;;;156.45;38.45;;;;;;;11.12;100.00;101657.19;5084114;28;20036;-73
2022/09/11 02:55:19;;;;;;;417.00;41.80;;;;;;;11.12;100.00;101654.53;5086324;28;20061;-71
2022/09/11 02:57:58;;;;;;;435.55;44.13;;;;;;;11.07;100.00;101653.59;5086453;28;20070;-71
2022/09/11 03:00:23;;;;;;;121.10;38.58;;;;;;;11.22;100.00;101657.34;5083497;28;20520;-65
2022/09/11 03:02:48;;;;;;;413.15;48.58;;;;;;;11.11;100.00;101658.06;5086899;28;20032;-71
2022/09/11 03:05:14;;;;;;;362.70;43.33;;;;;;;11.08;100.00;101658.03;5084355;28;20709;-73
2022/09/11 03:07:39;;;;;;;264.75;40.97;;;;;;;11.07;100.00;101665.94;5085431;28;20482;-69
2022/09/11 03:10:07;;;;;;;219.93;38.85;;;;;;;11.04;100.00;101668.50;5085604;28;20032;-72
2022/09/11 03:12:33;;;;;;;89.10;36.85;;;;;;;11.05;100.00;101662.38;5084223;28;20017;-71
2022/09/11 03:14:58;;;;;;;121.63;37.15;;;;;;;11.01;100.00;101661.44;5086303;28;20473;-67
2022/09/11 03:17:24;;;;;;;127.43;37.42;;;;;;;10.96;100.00;101663.09;5083169;28;20037;-68
2022/09/11 03:19:49;;;;;;;205.18;38.55;;;;;;;10.91;100.00;101664.81;5086498;28;20070;-69
2022/09/11 03:22:15;;;;;;;126.70;34.95;;;;;;;10.91;100.00;101655.09;5083450;28;20079;-69
2022/09/11 03:24:40;;;;;;;126.55;34.80;;;;;;;10.96;100.00;101665.75;5085143;28;20017;-70
2022/09/11 03:27:05;;;;;;;137.13;35.75;;;;;;;10.91;100.00;101659.53;5084998;28;20024;-70
2022/09/11 03:29:32;;;;;;;85.35;35.15;;;;;;;11.01;100.00;101663.19;5083835;28;20045;-66
2022/09/11 03:31:57;;;;;;;162.43;38.20;;;;;;;10.96;100.00;101656.06;5086099;28;20024;-66
2022/09/11 03:34:24;;;;;;;119.60;36.90;;;;;;;11.02;100.00;101667.63;5082934;28;20013;-66
2022/09/11 03:36:50;;;;;;;191.27;41.08;;;;;;;10.97;100.00;101664.91;5086248;28;20027;-66
2022/09/11 03:39:15;;;;;;;161.27;39.28;;;;;;;10.93;100.00;101661.28;5083654;28;20048;-66
2022/09/11 03:41:40;;;;;;;143.95;36.35;;;;;;;10.91;100.00;101668.34;5084829;28;20020;-66
2022/09/11 03:44:06;;;;;;;88.88;34.40;;;;;;;10.98;100.00;101671.97;5084824;28;20027;-65
2022/09/11 03:46:32;;;;;;;168.38;40.13;;;;;;;10.94;100.00;101665.72;5082178;28;20048;-66
2022/09/11 03:49:01;;;;;;;101.45;36.42;;;;;;;11.03;100.00;101670.28;5085829;28;20117;-65
2022/09/11 03:51:27;;;;;;;108.90;38.20;;;;;;;11.07;100.00;101674.75;5082713;28;20107;-66
2022/09/11 03:53:52;;;;;;;102.82;36.00;;;;;;;11.00;100.00;101675.53;5086152;28;20110;-65
2022/09/11 03:56:18;;;;;;;124.35;39.00;;;;;;;11.03;100.00;101674.69;5082618;28;20028;-65
2022/09/11 03:58:43;;;;;;;128.88;40.03;;;;;;;11.04;100.00;101676.44;5085282;28;20032;-66
2022/09/11 04:01:14;;;;;;;73.78;36.40;;;;;;;11.07;100.00;101673.88;5083938;28;20027;-66
2022/09/11 04:03:40;;;;;;;132.65;40.92;;;;;;;11.06;100.00;101672.09;5084418;28;20379;-65
2022/09/11 04:06:07;;;;;;;128.80;40.80;;;;;;;11.07;100.00;101672.13;5084351;28;20028;-66
2022/09/11 04:08:32;;;;;;;150.02;42.28;;;;;;;11.12;100.00;101669.53;5082863;28;20067;-66
2022/09/11 04:11:04;;;;;;;129.35;41.15;;;;;;;11.09;100.00;101674.78;5085703;28;20056;-67
2022/09/11 04:13:35;;;;;;;97.70;39.75;;;;;;;11.13;100.00;101666.91;5082790;28;20034;-68
2022/09/11 04:16:05;;;;;;;96.25;38.13;;;;;;;11.14;100.00;101667.81;5083596;28;20539;-67
2022/09/11 04:18:31;;;;;;;122.03;40.13;;;;;;;11.08;100.00;101673.00;5082562;28;20028;-71
2022/09/11 04:20:57;;;;;;;103.10;39.78;;;;;;;11.05;100.00;101665.00;5085298;28;20020;-69
2022/09/11 04:23:22;;;;;;;106.78;41.05;;;;;;;11.04;100.00;101666.78;5082164;28;20028;-68
2022/09/11 04:25:48;;;;;;;102.88;38.67;;;;;;;10.97;100.00;101673.72;5084872;28;20027;-71
2022/09/11 04:28:13;;;;;;;125.45;39.67;;;;;;;10.92;100.00;101666.56;5083139;28;20032;-67
2022/09/11 04:30:39;;;;;;;127.30;39.97;;;;;;;10.90;100.00;101665.66;5083358;28;20479;-70
2022/09/11 04:33:05;;;;;;;106.50;36.92;;;;;;;10.88;100.00;101664.72;5083590;28;20020;-71
2022/09/11 04:35:39;;;;;;;75.03;36.00;;;;;;;10.91;100.00;101667.44;5082343;28;20032;-67
2022/09/11 04:38:06;;;;;;;142.80;40.45;;;;;;;10.83;100.00;101672.59;5084048;28;20028;-71
2022/09/11 04:40:35;;;;;;;166.32;40.30;;;;;;;10.77;100.00;101670.75;5082571;28;20406;-71
2022/09/11 04:43:02;;;;;;;131.57;39.95;;;;;;;10.82;100.00;101677.00;5084594;28;20055;-71
2022/09/11 04:45:32;;;;;;;182.23;43.72;;;;;;;10.79;100.00;101666.38;5081762;28;20070;-71
2022/09/11 04:48:00;;;;;;;133.07;41.42;;;;;;;10.82;100.00;101671.72;5084869;28;20032;-71
2022/09/11 04:50:27;;;;;;;144.80;41.60;;;;;;;10.80;100.00;101684.03;5081478;28;20035;-71
2022/09/11 04:52:53;;;;;;;142.98;41.95;;;;;;;10.73;100.00;101682.16;5081740;28;20025;-71
2022/09/11 04:55:19;;;;;;;152.13;41.67;;;;;;;10.69;100.00;101690.91;5084826;28;20032;-70
2022/09/11 04:57:44;;;;;;;106.80;38.25;;;;;;;10.70;100.00;101690.00;5082283;28;20069;-68
2022/09/11 05:00:10;;;;;;;133.07;40.58;;;;;;;10.69;100.00;101680.31;5083284;28;20028;-71
2022/09/11 05:02:35;;;;;;;120.97;38.90;;;;;;;10.67;100.00;101689.06;5083373;28;20024;-69
2022/09/11 05:05:01;;;;;;;106.57;40.25;;;;;;;10.66;100.00;101684.66;5082223;28;20097;-69
2022/09/11 05:07:28;;;;;;;113.80;40.20;;;;;;;10.66;100.00;101680.28;5084861;28;20128;-74
2022/09/11 05:09:53;;;;;;;103.63;39.97;;;;;;;10.66;100.00;101680.28;5081311;28;20170;-74
2022/09/11 05:12:19;;;;;;;88.25;39.03;;;;;;;10.64;100.00;101687.25;5084625;28;20102;-68
2022/09/11 05:14:45;;;;;;;104.68;40.75;;;;;;;10.61;100.00;101687.22;5081915;28;20113;-70
2022/09/11 05:17:12;;;;;;;124.03;40.17;;;;;;;10.55;100.00;101687.13;5082972;28;20484;-71
2022/09/11 05:19:38;;;;;;;168.70;42.58;;;;;;;10.42;100.00;101701.84;5082947;28;20041;-69
2022/09/11 05:22:04;;;;;;;115.32;41.72;;;;;;;10.51;100.00;101701.13;5082202;28;20562;-69
2022/09/11 05:24:29;;;;;;;129.55;42.05;;;;;;;10.53;100.00;101704.69;5084099;28;20036;-68
2022/09/11 05:26:54;;;;;;;162.60;43.60;;;;;;;10.50;100.00;101710.81;5081076;28;20051;-72
2022/09/11 05:29:20;;;;;;;118.70;39.53;;;;;;;10.53;100.00;101725.84;5083719;28;20528;-70
2022/09/11 05:31:46;;;;;;;131.20;40.50;;;;;;;10.46;100.00;101720.44;5081773;28;20032;-71
2022/09/11 05:34:11;;;;;;;106.82;40.67;;;;;;;10.49;100.00;101732.84;5083153;28;20020;-69
2022/09/11 05:36:37;;;;;;;102.88;41.22;;;;;;;10.43;100.00;101730.97;5082713;28;20103;-70
2022/09/11 05:39:03;;;;;;;128.27;41.00;;;;;;;10.39;100.00;101739.69;5081590;28;20025;-68
2022/09/11 05:41:28;;;;;;;182.95;44.40;;;;;;;10.33;100.00;101744.81;5084092;28;20031;-68
2022/09/11 05:43:53;;;;;;;99.90;40.35;;;;;;;10.33;100.00;101750.13;5081987;28;20024;-71
2022/09/11 05:46:20;;;;;;;104.80;40.58;;;;;;;10.34;100.00;101757.22;5087983;28;20020;-67
2022/09/11 05:48:46;;;;;;;84.32;40.05;;;;;;;10.43;100.00;101757.41;5085751;28;20394;-68
2022/09/11 05:51:18;;;;;;;89.40;40.40;;;;;;;10.51;100.00;101751.38;5086732;28;20501;-68
2022/09/11 05:53:44;;;;;;;92.57;40.42;;;;;;;10.55;100.00;101751.44;5085901;28;20035;-69
2022/09/11 05:56:18;;;;;;;84.82;39.72;;;;;;;10.63;100.00;101760.41;5086662;28;20031;-68
2022/09/11 05:58:45;;;;;;;132.90;43.22;;;;;;;10.65;100.00;101763.09;5085767;28;20020;-68
2022/09/11 06:01:22;;;;;;;118.47;40.65;;;;;;;10.63;100.00;101770.13;5086498;28;20025;-68
2022/09/11 06:03:48;;;;;;;98.20;39.20;;;;;;;10.62;100.00;101773.63;5085017;28;20032;-68
2022/09/11 06:06:15;;;;;;;135.50;41.53;;;;;;;10.63;100.00;101778.06;5087064;28;20044;-68
2022/09/11 06:08:42;;;;;;;154.77;42.25;;;;;;;10.68;100.00;101779.00;5086095;28;20024;-68
2022/09/11 06:11:09;;;;;;;153.00;41.72;;;;;;;10.71;100.00;101784.34;5088951;28;20024;-68
2022/09/11 06:13:40;;;;;;;135.18;41.08;;;;;;;10.74;100.00;101776.47;5084382;28;20028;-68
2022/09/11 06:16:24;;;;;;;189.18;43.85;;;;;;;10.86;100.00;101778.44;5086534;28;20028;-67
2022/09/11 06:18:51;;;;;;;109.05;40.60;;;;;;;10.94;100.00;101779.47;5087487;28;20363;-72
2022/09/11 06:21:22;;;;;;;107.38;39.38;;;;;;;10.95;100.00;101786.56;5082951;28;20478;-65
2022/09/11 06:23:49;;;;;;;124.25;40.15;;;;;;;11.05;100.00;101792.00;5090217;28;20024;-65
2022/09/11 06:26:17;;;;;;;130.27;40.33;;;;;;;10.92;100.00;101790.91;5089811;28;20450;-65
2022/09/11 06:28:43;;;;;;;87.30;37.83;;;;;;;11.13;100.00;101791.28;5086526;28;20103;-65
2022/09/11 06:31:12;;;;;;;114.93;40.05;;;;;;;11.15;100.00;101802.81;5089204;28;20451;-65
2022/09/11 06:33:39;;;;;;;195.15;44.00;;;;;;;11.19;100.00;101795.78;5090379;28;20450;-65
2022/09/11 06:36:07;;;;;;;71.25;37.70;;;;;;;11.30;100.00;101806.53;5086903;28;20471;-66
2022/09/11 06:38:32;;;;;;;121.00;39.63;;;;;;;11.32;100.00;101811.00;5087218;28;20035;-66
2022/09/11 06:41:02;;;;;;;105.10;38.88;;;;;;;11.46;100.00;101808.59;5089707;28;20107;-66
2022/09/11 06:43:29;;;;;;;119.57;40.17;;;;;;;11.44;100.00;101802.38;5088380;28;20073;-66
2022/09/11 06:45:54;;;;;;;71.35;36.85;;;;;;;11.53;100.00;101801.63;5086921;28;20419;-66
2022/09/11 06:48:20;;;;;;;86.35;37.70;;;;;;;11.55;100.00;101799.00;5089118;28;20059;-66
2022/09/11 06:50:45;;;;;;;92.57;36.88;;;;;;;11.58;100.00;101801.72;5084687;28;20051;-66
2022/09/11 06:53:12;;;;;;;78.75;36.13;;;;;;;11.61;100.00;101812.34;5086950;28;20020;-66
2022/09/11 06:55:38;;;;;;;111.78;37.38;;;;;;;11.78;100.00;101810.84;5083056;28;20024;-66
2022/09/11 06:58:03;;;;;;;136.23;39.78;;;;;;;11.92;100.00;101815.44;5086901;28;20066;-66
2022/09/11 07:00:30;;;;;;;87.85;37.22;;;;;;;12.09;100.00;101811.31;5084436;28;20032;-66
2022/09/11 07:02:55;;;;;;;78.55;36.75;;;;;;;12.27;100.00;101815.06;5086060;28;20078;-73
2022/09/11 07:05:21;;;;;;;96.80;36.05;;;;;;;12.27;100.00;101815.94;5081647;28;20478;-75
2022/09/11 07:07:54;;;;;;;110.63;36.83;;;;;;;12.32;100.00;101821.31;5090371;28;20032;-69
2022/09/11 07:10:19;;;;;;;125.85;36.25;;;;;;;12.33;100.00;101825.75;5089848;28;20051;-68
2022/09/11 07:12:45;;;;;;;109.70;34.45;;;;;;;12.42;100.00;101819.66;5088237;28;20071;-71
2022/09/11 07:15:10;;;;;;;121.35;32.45;;;;;;;12.51;100.00;101815.38;5089051;28;20440;-69
2022/09/11 07:17:35;;;;;;;249.65;35.72;;;;;;;12.49;100.00;101811.78;5086701;28;20035;-74
2022/09/11 07:20:03;;;;;;;165.60;32.65;;;;;;;12.60;100.00;101813.72;5077614;28;20122;-68
2022/09/11 07:22:30;;;;;;;155.13;32.08;;;;;;;12.59;100.00;101817.22;5076546;28;20017;-76
2022/09/11 07:24:55;;;;;;;110.10;30.15;;;;;;;12.73;100.00;101813.84;5083048;28;20028;-68
2022/09/11 07:27:21;;;;;;;103.35;31.02;;;;;;;12.93;100.00;101809.63;5082672;28;20093;-69
2022/09/11 07:29:46;;;;;;;212.88;31.23;;;;;;;12.98;100.00;101814.09;5085862;28;20078;-75
2022/09/11 07:32:12;;;;;;;147.52;27.20;;;;;;;13.00;100.00;101816.75;5086708;28;20020;-72
2022/09/11 07:34:37;;;;;;;127.60;27.90;;;;;;;13.13;100.00;101812.47;5085757;28;20028;-69
2022/09/11 07:37:03;;;;;;;89.53;26.13;;;;;;;13.33;100.00;101810.00;5089220;28;20032;-80
2022/09/11 07:39:28;;;;;;;69.65;25.23;;;;;;;13.49;100.00;101822.53;5087874;28;20052;-74
2022/09/11 07:41:53;;;;;;;70.43;23.70;;;;;;;13.66;100.00;101813.78;5092093;28;20035;-73
2022/09/11 07:44:22;;;;;;;119.13;23.92;;;;;;;13.69;100.00;101813.81;5087172;28;20024;-70
2022/09/11 07:46:48;;;;;;;116.20;23.38;;;;;;;13.75;100.00;101806.78;5082608;28;20028;-76
2022/09/11 07:49:14;;;;;;;79.65;22.90;;;;;;;13.96;100.00;101818.44;5087038;28;20047;-76
2022/09/11 07:51:39;;;;;;;66.72;22.42;;;;;;;14.18;100.00;101814.09;5091984;28;20032;-70
2022/09/11 07:54:05;;;;;;;55.33;22.48;;;;;;;14.39;100.00;101809.78;5086560;28;20031;-69
2022/09/11 07:56:34;;;;;;;55.67;21.40;;;;;;;14.46;100.00;101820.44;5086714;28;20026;-76
2022/09/11 07:59:00;;;;;;;73.03;23.25;;;;;;;14.48;100.00;101820.44;5089014;28;20106;-74
2022/09/11 08:01:28;;;;;;;47.75;23.10;;;;;;;14.63;100.00;101828.53;5085249;28;20024;-71
2022/09/11 08:03:57;;;;;;;38.95;21.80;;;;;;;14.97;100.00;101825.94;5084790;28;20036;-69
2022/09/11 08:06:26;;;;;;;42.88;21.25;;;;;;;15.32;100.00;101821.53;5088807;28;20428;-71
2022/09/11 08:08:53;;;;;;;45.08;21.02;;;;;;;15.51;100.00;101831.28;5083941;28;20080;-73
2022/09/11 08:11:19;;;;;;;39.70;21.23;;;;;;;15.53;100.00;101833.97;5082555;28;20024;-72
2022/09/11 08:13:50;;;;;;;33.33;22.02;;;;;;;15.68;100.00;101838.38;5085833;28;20032;-77
2022/09/11 08:16:18;;;;;;;34.78;22.13;;;;;;;15.90;100.00;101833.97;5082291;28;20066;-72
2022/09/11 08:18:44;;;;;;;33.72;21.83;;;;;;;16.17;100.00;101837.44;5085428;28;20016;-70
2022/09/11 08:21:10;;;;;;;32.53;21.60;;;;;;;16.34;100.00;101840.06;5082615;28;20032;-72
2022/09/11 08:23:39;;;;;;;32.40;21.92;;;;;;;16.43;100.00;101842.66;5084490;28;20761;-74
2022/09/11 08:26:15;;;;;;;30.98;21.25;;;;;;;16.60;100.00;101844.38;5082728;28;20137;-76
2022/09/11 08:28:42;;;;;;;32.53;21.30;;;;;;;16.86;100.00;101847.81;5084843;28;20028;-73
2022/09/11 08:31:08;;;;;;;29.75;20.92;;;;;;;17.01;100.00;101852.19;5082022;28;20491;-71
2022/09/11 08:33:34;;;;;;;30.20;21.08;;;;;;;17.17;100.00;101852.97;5084148;28;20089;-70
2022/09/11 08:36:01;;;;;;;30.05;20.65;;;;;;;17.31;100.00;101860.00;5083333;28;20052;-78
2022/09/11 08:38:27;;;;;;;29.98;20.85;;;;;;;17.33;100.00;101852.84;5083547;28;20103;-73
2022/09/11 08:40:54;;;;;;;32.67;22.70;;;;;;;17.48;100.00;101857.19;5084144;28;20047;-71
2022/09/11 08:43:25;;;;;;;30.33;21.17;;;;;;;17.56;100.00;101861.56;5081915;28;20107;-73
2022/09/11 08:45:57;;;;;;;31.38;21.80;;;;;;;17.71;100.00;101868.56;5084621;28;20024;-73
2022/09/11 08:48:31;;;;;;;31.08;21.83;;;;;;;17.99;100.00;101862.09;5082547;28;20039;-72
2022/09/11 08:50:57;;;;;;;31.50;22.88;;;;;;;18.10;100.00;101866.44;5083443;28;20021;-73
2022/09/11 08:53:22;;;;;;;30.30;21.73;;;;;;;18.42;100.00;101870.53;5082078;28;20025;-73
2022/09/11 08:56:08;;;;;;;30.55;22.60;;;;;;;19.24;100.00;101871.22;5085148;28;20378;-74
2022/09/11 08:59:05;;;;;;;30.80;22.58;;;;;;;19.83;100.00;101861.31;5084191;28;20025;-75
2022/09/11 09:01:49;;;;;;;30.10;21.17;;;;;;;20.62;100.00;101856.16;5084665;28;20055;-72
2022/09/11 09:04:23;;;;;;;28.60;20.50;;;;;;;21.56;100.00;101865.66;5081598;28;20020;-71
2022/09/11 09:06:59;;;;;;;28.38;20.02;;;;;;;22.22;100.00;101864.81;5081461;28;20105;-70
2022/09/11 09:09:50;;;;;;;27.30;19.25;;;;;;;22.66;100.00;101869.84;5083585;28;20386;-78
2022/09/11 09:12:30;;;;;;;26.40;18.73;;;;;;;22.70;100.00;101869.75;5080178;28;20028;-72
2022/09/11 09:15:15;;;;;;;27.80;19.20;;;;;;;23.10;100.00;101873.00;5082072;28;20044;-76
2022/09/11 09:17:49;;;;;;;27.15;19.17;;;;;;;23.23;100.00;101876.22;5081053;28;20391;-71
2022/09/11 09:20:21;;;;;;;27.08;19.08;;;;;;;23.48;100.00;101873.59;5081055;28;20028;-75
2022/09/11 09:22:59;;;;;;;27.52;18.73;;;;;;;23.66;100.00;101870.28;5079683;28;20032;-75
2022/09/11 09:25:25;;;;;;;26.42;18.20;;;;;;;24.13;100.00;101872.25;5083214;28;20027;-73
2022/09/11 09:28:00;;;;;;;26.63;19.17;;;;;;;24.65;100.00;101880.22;5081647;28;20033;-71
2022/09/11 09:30:33;;;;;;;26.48;18.70;;;;;;;25.03;100.00;101876.97;5082743;28;20059;-72
2022/09/11 09:33:31;;;;;;;26.23;18.42;;;;;;;25.49;100.00;101871.53;5082476;28;20036;-73
2022/09/11 09:36:10;;;;;;;26.65;19.20;;;;;;;25.42;100.00;101875.44;4998992;28;20050;-76
2022/09/11 09:38:35;;;;;;;26.75;18.42;;;;;;;24.99;100.00;101873.50;4999782;28;20517;-75
2022/09/11 09:41:39;;;;;;;26.52;18.60;;;;;;;25.88;100.00;101873.47;4999007;28;20042;-74
2022/09/11 09:44:21;;;;;;;27.00;19.20;;;;;;;26.01;100.00;101876.53;5002461;28;20042;-75
2022/09/11 09:46:49;;;;;;;27.98;20.00;;;;;;;25.56;100.00;101878.44;5000827;28;20034;-70
2022/09/11 09:49:26;;;;;;;28.20;21.80;;;;;;;24.23;100.00;101869.19;4999422;28;20031;-75
2022/09/11 09:51:54;;;;;;;27.20;21.20;;;;;;;23.03;100.00;101876.81;5000767;28;20436;-76
2022/09/11 09:54:25;;;;;;;27.73;20.80;;;;;;;22.85;100.00;101872.88;5000445;28;20038;-64
2022/09/11 09:56:58;;;;;;;29.95;22.08;;;;;;;24.54;100.00;101877.91;5000472;28;20404;-64
2022/09/11 09:59:54;;;;;;;27.33;20.35;;;;;;;25.74;100.00;101871.34;5001093;28;20039;-65
2022/09/11 10:02:39;;;;;;;26.98;20.15;;;;;;;25.69;100.00;101867.97;5002268;28;20477;-65
2022/09/11 10:05:24;;;;;;;27.17;20.35;;;;;;;25.04;100.00;101871.50;5002936;28;20026;-64
2022/09/11 10:07:56;;;;;;;26.92;19.80;;;;;;;24.14;100.00;101867.72;5002125;28;20034;-65
2022/09/11 10:10:27;;;;;;;26.67;19.10;;;;;;;23.69;100.00;101871.97;5000358;28;20037;-65
2022/09/11 10:13:19;;;;;;;26.42;19.27;;;;;;;24.15;100.00;101864.97;5043516;28;20060;-66
2022/09/11 10:15:48;;;;;;;26.25;19.35;;;;;;;24.69;100.00;101881.00;5081545;28;20028;-66
2022/09/11 10:18:31;;;;;;;26.70;18.48;;;;;;;24.33;100.00;101882.31;5083270;28;20032;-66
2022/09/11 10:21:11;;;;;;;25.27;17.80;;;;;;;23.40;100.00;101879.25;5083007;28;20066;-65
2022/09/11 10:23:50;;;;;;;26.73;18.50;;;;;;;22.68;100.00;101879.66;5080583;28;20032;-65
2022/09/11 10:26:25;;;;;;;25.95;18.80;;;;;;;22.27;100.00;101865.59;5081298;28;20029;-65
2022/09/11 10:28:54;;;;;;;26.27;18.25;;;;;;;23.94;100.00;101871.13;5082080;28;20028;-65
2022/09/11 10:31:21;;;;;;;25.88;17.65;;;;;;;25.93;100.00;101866.91;5083591;28;20445;-66
2022/09/11 10:33:54;;;;;;;26.63;17.17;;;;;;;27.80;98.95;101870.69;5086241;28;20023;-66
2022/09/11 10:36:26;;;;;;;26.30;17.92;;;;;;;28.40;86.95;101872.97;5085544;28;20024;-65
2022/09/11 10:38:52;;;;;;;26.23;18.30;;;;;;;28.76;83.41;101871.00;5085396;28;20031;-65
2022/09/11 10:41:23;;;;;;;24.85;16.77;;;;;;;29.33;79.26;101871.38;5085414;28;20021;-66
2022/09/11 10:44:02;;;;;;;26.38;17.05;;;;;;;29.71;79.14;101873.66;5085839;28;20077;-65
2022/09/11 10:46:31;;;;;;;25.35;17.10;;;;;;;30.37;73.39;101867.84;5086455;28;20017;-65
2022/09/11 10:48:58;;;;;;;24.90;16.95;;;;;;;31.31;52.13;101866.31;5084581;28;20039;-66
2022/09/11 10:51:26;;;;;;;24.88;16.02;;;;;;;32.30;45.65;101863.13;5085825;28;20066;-66
2022/09/11 10:54:13;;;;;;;23.90;15.50;;;;;;;33.05;48.96;101864.97;5085536;28;20043;-67
2022/09/11 10:56:53;;;;;;;22.73;14.73;;;;;;;32.90;43.41;101867.00;5087297;28;20035;-69
2022/09/11 10:59:42;;;;;;;22.05;13.10;;;;;;;33.17;41.89;101860.41;5084918;28;20021;-67
2022/09/11 11:02:22;;;;;;;21.60;12.30;;;;;;;33.45;43.02;101856.47;5083389;28;20017;-70
2022/09/11 11:04:48;;;;;;;22.15;12.27;;;;;;;33.67;35.41;101860.25;5084734;28;20021;-68
2022/09/11 11:07:33;;;;;;;21.38;11.77;;;;;;;34.66;34.86;101855.16;5086133;28;20104;-68
2022/09/11 11:10:13;;;;;;;21.50;11.32;;;;;;;35.01;35.63;101855.03;5084812;28;20031;-67
2022/09/11 11:12:44;;;;;;;20.10;10.48;;;;;;;34.39;35.88;101850.97;5083421;28;20035;-67
2022/09/11 11:15:38;;;;;;;20.17;10.73;;;;;;;33.08;39.04;101851.03;5086918;28;20146;-68